createdAt,value
2019-01-20T00:01:04.302Z,-3.30
2019-01-20T00:05:10.698Z,-3.41
2019-01-20T00:09:15.647Z,-3.45
2019-01-20T00:13:21.001Z,-3.54
2019-01-20T00:17:26.048Z,-3.56
2019-01-20T00:21:31.218Z,-3.57
2019-01-20T00:25:36.618Z,-3.65
2019-01-20T00:29:41.643Z,-3.52
2019-01-20T00:33:46.944Z,-3.59
2019-01-20T00:37:52.078Z,-3.61
2019-01-20T00:41:57.469Z,-3.90
2019-01-20T00:46:02.590Z,-3.95
2019-01-20T00:50:08.779Z,-4.02
2019-01-20T00:54:14.092Z,-4.03
2019-01-20T00:58:19.228Z,-3.93
2019-01-20T01:02:24.560Z,-3.84
2019-01-20T01:06:29.648Z,-3.73
2019-01-20T01:10:34.779Z,-3.72
2019-01-20T01:14:39.870Z,-3.70
2019-01-20T01:18:44.900Z,-3.71
2019-01-20T01:22:49.967Z,-3.71
2019-01-20T01:26:55.080Z,-3.73
2019-01-20T01:31:00.154Z,-3.69
2019-01-20T01:35:05.826Z,-3.67
2019-01-20T01:39:10.892Z,-3.75
2019-01-20T01:43:15.905Z,-3.81
2019-01-20T01:47:20.943Z,-3.95
2019-01-20T01:51:26.093Z,-4.01
2019-01-20T01:55:31.156Z,-3.99
2019-01-20T01:59:36.242Z,-4.01
2019-01-20T02:03:41.364Z,-3.73
2019-01-20T02:07:46.583Z,-3.76
2019-01-20T02:11:51.735Z,-3.76
2019-01-20T02:15:56.788Z,-3.89
2019-01-20T02:20:01.882Z,-3.82
2019-01-20T02:24:07.023Z,-3.95
2019-01-20T02:28:12.165Z,-3.85
2019-01-20T02:32:17.158Z,-3.86
2019-01-20T02:36:22.254Z,-3.85
2019-01-20T02:40:27.646Z,-3.83
2019-01-20T02:44:32.670Z,-3.82
2019-01-20T02:48:37.703Z,-3.87
2019-01-20T02:52:42.802Z,-3.96
2019-01-20T02:56:47.847Z,-3.92
2019-01-20T03:00:52.858Z,-3.94
2019-01-20T03:04:58.032Z,-3.94
2019-01-20T03:09:04.730Z,-4.00
2019-01-20T03:13:09.956Z,-3.98
2019-01-20T03:17:15.007Z,-4.05
2019-01-20T03:21:19.973Z,-4.13
2019-01-20T03:25:26.126Z,-4.05
2019-01-20T03:29:31.206Z,-4.09
2019-01-20T03:33:36.511Z,-4.04
2019-01-20T03:37:41.574Z,-4.21
2019-01-20T03:41:46.681Z,-4.24
2019-01-20T03:45:51.748Z,-4.26
2019-01-20T03:49:56.853Z,-4.25
2019-01-20T03:54:01.972Z,-4.31
2019-01-20T03:58:07.038Z,-4.26
2019-01-20T04:02:12.048Z,-4.23
2019-01-20T04:06:17.032Z,-4.23
2019-01-20T04:10:22.068Z,-4.31
2019-01-20T04:14:27.222Z,-4.28
2019-01-20T04:18:32.190Z,-4.26
2019-01-20T04:22:37.281Z,-4.42
2019-01-20T04:26:42.275Z,-4.38
2019-01-20T04:30:47.599Z,-4.52
2019-01-20T04:34:52.682Z,-4.61
2019-01-20T04:38:57.790Z,-4.61
2019-01-20T04:43:02.840Z,-4.45
2019-01-20T04:47:07.862Z,-4.38
2019-01-20T04:51:13.042Z,-4.40
2019-01-20T04:55:19.057Z,-4.39
2019-01-20T04:59:24.054Z,-4.51
2019-01-20T05:03:29.016Z,-4.46
2019-01-20T05:07:34.106Z,-4.63
2019-01-20T05:11:39.209Z,-4.76
2019-01-20T05:15:44.297Z,-4.78
2019-01-20T05:19:49.264Z,-4.74
2019-01-20T05:23:54.564Z,-4.85
2019-01-20T05:27:59.607Z,-4.89
2019-01-20T05:32:04.709Z,-4.80
2019-01-20T05:36:09.789Z,-4.88
2019-01-20T05:40:17.245Z,-4.66
2019-01-20T05:44:22.654Z,-4.67
2019-01-20T05:48:27.789Z,-4.61
2019-01-20T05:52:32.820Z,-4.65
2019-01-20T05:56:37.869Z,-5.01
2019-01-20T06:00:42.904Z,-4.86
2019-01-20T06:04:47.995Z,-5.09
2019-01-20T06:08:53.128Z,-5.27
2019-01-20T06:12:58.176Z,-5.39
2019-01-20T06:17:03.281Z,-5.52
2019-01-20T06:21:08.410Z,-5.44
2019-01-20T06:25:13.635Z,-5.43
2019-01-20T06:29:19.080Z,-5.57
2019-01-20T06:33:24.117Z,-5.41
2019-01-20T06:37:29.185Z,-5.42
2019-01-20T06:41:34.228Z,-5.51
2019-01-20T06:45:39.324Z,-5.40
2019-01-20T06:49:44.251Z,-5.40
2019-01-20T06:53:49.253Z,-5.22
2019-01-20T06:57:54.335Z,-5.27
2019-01-20T07:01:59.868Z,-5.38
2019-01-20T07:06:05.287Z,-5.26
2019-01-20T07:10:10.911Z,-5.01
2019-01-20T07:14:15.936Z,-5.12
2019-01-20T07:18:21.070Z,-5.10
2019-01-20T07:22:26.147Z,-5.02
2019-01-20T07:26:31.279Z,-5.00
2019-01-20T07:30:37.558Z,-4.78
2019-01-20T07:34:42.611Z,-4.81
2019-01-20T07:38:47.713Z,-4.81
2019-01-20T07:42:52.787Z,-4.82
2019-01-20T07:46:57.807Z,-4.68
2019-01-20T07:51:03.076Z,-4.78
2019-01-20T07:55:08.815Z,-4.81
2019-01-20T07:59:14.719Z,-4.72
2019-01-20T08:03:20.080Z,-4.51
2019-01-20T08:07:27.222Z,-4.40
2019-01-20T08:11:32.217Z,-4.39
2019-01-20T08:15:37.369Z,-4.14
2019-01-20T08:19:42.472Z,-4.06
2019-01-20T08:23:47.411Z,-4.04
2019-01-20T08:27:52.564Z,-3.61
2019-01-20T08:31:57.662Z,-3.41
2019-01-20T08:36:02.772Z,-3.64
2019-01-20T08:40:11.097Z,-3.64
2019-01-20T08:44:15.998Z,-3.25
2019-01-20T08:48:22.067Z,-3.22
2019-01-20T08:52:27.035Z,-3.21
2019-01-20T08:56:32.136Z,-3.30
2019-01-20T09:00:37.262Z,-3.19
2019-01-20T09:04:42.273Z,-3.14
2019-01-20T09:08:47.239Z,-2.29
2019-01-20T09:12:52.425Z,-1.45
2019-01-20T09:16:57.545Z,-1.65
2019-01-20T09:21:02.611Z,-1.39
2019-01-20T09:25:08.605Z,-1.39
2019-01-20T09:29:13.616Z,-1.65
2019-01-20T09:33:24.525Z,-1.29
2019-01-20T09:37:25.525Z,-0.93
2019-01-20T09:41:30.853Z,-1.76
2019-01-20T09:45:36.594Z,-1.83
2019-01-20T09:49:41.729Z,-1.36
2019-01-20T09:53:47.304Z,-1.36
2019-01-20T09:57:52.441Z,-0.55
2019-01-20T10:01:57.599Z,-0.70
2019-01-20T10:06:02.657Z,0.08
2019-01-20T10:10:09.622Z,-0.91
2019-01-20T10:14:14.541Z,-0.48
2019-01-20T10:18:19.849Z,-0.29
2019-01-20T10:22:24.889Z,0.62
2019-01-20T10:26:29.946Z,0.35
2019-01-20T10:30:36.339Z,0.26
2019-01-20T10:34:41.563Z,0.35
2019-01-20T10:38:46.547Z,-0.32
2019-01-20T10:42:51.609Z,-0.22
2019-01-20T10:46:56.644Z,-0.29
2019-01-20T10:51:01.771Z,0.31
2019-01-20T10:55:07.207Z,0.12
2019-01-20T10:59:12.184Z,0.73
2019-01-20T11:03:17.274Z,1.07
2019-01-20T11:07:22.176Z,1.20
2019-01-20T11:11:27.208Z,1.13
2019-01-20T11:15:32.208Z,0.63
2019-01-20T11:19:37.248Z,1.36
2019-01-20T11:23:42.321Z,1.76
2019-01-20T11:27:47.363Z,0.60
2019-01-20T11:31:52.395Z,0.64
2019-01-20T11:35:57.395Z,0.12
2019-01-20T11:40:02.447Z,0.67
2019-01-20T11:44:07.491Z,1.35
2019-01-20T11:48:12.540Z,1.78
2019-01-20T11:52:17.587Z,1.51
2019-01-20T11:56:22.500Z,1.65
2019-01-20T12:00:30.045Z,1.73
2019-01-20T12:04:35.147Z,1.50
2019-01-20T12:08:40.210Z,2.19
2019-01-20T12:12:47.837Z,2.79
2019-01-20T12:16:53.025Z,2.39
2019-01-20T12:20:59.603Z,1.90
2019-01-20T12:25:05.367Z,2.92
2019-01-20T12:29:10.481Z,2.47
2019-01-20T12:33:15.616Z,3.65
2019-01-20T12:37:21.081Z,2.02
2019-01-20T12:41:26.110Z,1.85
2019-01-20T12:45:31.178Z,2.28
2019-01-20T12:49:36.190Z,2.31
2019-01-20T12:53:41.284Z,2.66
2019-01-20T12:57:46.467Z,2.84
2019-01-20T13:01:51.474Z,2.78
2019-01-20T13:05:56.601Z,2.11
2019-01-20T13:10:01.719Z,2.26
2019-01-20T13:14:07.778Z,2.82
2019-01-20T13:18:12.889Z,2.32
2019-01-20T13:22:17.921Z,2.16
2019-01-20T13:26:22.943Z,2.24
2019-01-20T13:30:29.265Z,2.60
2019-01-20T13:34:34.377Z,2.97
2019-01-20T13:38:39.510Z,2.80
2019-01-20T13:42:44.903Z,2.82
2019-01-20T13:46:49.951Z,3.07
2019-01-20T13:50:55.220Z,3.13
2019-01-20T13:55:00.292Z,3.22
2019-01-20T13:59:05.460Z,2.84
2019-01-20T14:03:10.689Z,3.15
2019-01-20T14:07:15.706Z,2.61
2019-01-20T14:11:20.723Z,3.03
2019-01-20T14:15:25.779Z,4.02
2019-01-20T14:19:30.804Z,3.85
2019-01-20T14:23:35.904Z,3.13
2019-01-20T14:27:40.937Z,2.92
2019-01-20T14:31:46.069Z,3.06
2019-01-20T14:35:51.132Z,3.18
2019-01-20T14:39:56.219Z,3.23
2019-01-20T14:44:01.520Z,3.25
2019-01-20T14:48:06.598Z,3.55
2019-01-20T14:52:12.606Z,4.35
2019-01-20T14:56:19.131Z,3.21
2019-01-20T15:00:30.386Z,4.18
2019-01-20T15:04:42.952Z,3.47
2019-01-20T15:08:48.305Z,4.15
2019-01-20T15:12:53.971Z,4.27
2019-01-20T15:17:01.057Z,3.46
2019-01-20T15:21:16.073Z,3.57
2019-01-20T15:25:23.976Z,5.01
2019-01-20T15:29:40.266Z,4.36
2019-01-20T15:33:48.851Z,4.51
2019-01-20T15:38:23.800Z,3.55
2019-01-20T15:42:29.520Z,3.86
2019-01-20T15:51:30.676Z,4.60
2019-01-20T15:55:38.663Z,3.76
2019-01-20T16:00:13.156Z,2.99
2019-01-20T16:04:52.785Z,0.92
2019-01-20T16:09:04.186Z,-0.08
2019-01-20T16:17:59.402Z,-0.44
2019-01-20T16:27:30.925Z,-0.51
2019-01-20T16:31:39.765Z,-0.46
2019-01-20T16:35:42.908Z,-0.50
2019-01-20T16:39:48.026Z,-0.56
2019-01-20T16:43:53.102Z,-0.64
2019-01-20T16:47:58.227Z,-0.78
2019-01-20T16:52:05.695Z,-0.68
2019-01-20T16:56:17.432Z,-0.70
2019-01-20T17:00:30.102Z,-0.88
2019-01-20T17:04:35.728Z,-0.86
2019-01-20T17:08:40.848Z,-0.88
2019-01-20T17:12:46.248Z,-0.93
2019-01-20T17:16:51.412Z,-1.21
2019-01-20T17:20:56.601Z,-1.25
2019-01-20T17:25:01.624Z,-1.41
2019-01-20T17:29:06.758Z,-1.41
2019-01-20T17:33:13.042Z,-1.43
2019-01-20T17:37:18.115Z,-1.50
2019-01-20T17:41:23.504Z,-1.45
2019-01-20T17:45:30.745Z,-1.63
2019-01-20T17:49:35.908Z,-1.83
2019-01-20T17:53:40.880Z,-1.72
2019-01-20T17:57:46.136Z,-1.81
2019-01-20T18:01:51.262Z,-1.82
2019-01-20T18:05:56.597Z,-1.67
2019-01-20T18:10:01.800Z,-2.16
2019-01-20T18:14:07.908Z,-1.94
2019-01-20T18:18:13.128Z,-1.89
2019-01-20T18:22:18.107Z,-1.60
2019-01-20T18:26:23.149Z,-1.46
2019-01-20T18:30:29.361Z,-1.54
2019-01-20T18:34:34.390Z,-2.15
2019-01-20T18:38:39.891Z,-2.06
2019-01-20T18:42:44.988Z,-1.99
2019-01-20T18:46:50.107Z,-2.41
2019-01-20T18:50:55.140Z,-2.55
2019-01-20T18:55:00.569Z,-2.50
2019-01-20T18:59:05.703Z,-2.92
2019-01-20T19:03:10.960Z,-3.12
2019-01-20T19:07:16.088Z,-3.17
2019-01-20T19:11:21.312Z,-3.21
2019-01-20T19:15:26.445Z,-2.93
2019-01-20T19:19:31.507Z,-2.75
2019-01-20T19:23:36.667Z,-3.26
2019-01-20T19:27:41.692Z,-3.43
2019-01-20T19:31:46.996Z,-3.35
2019-01-20T19:35:52.051Z,-3.22
2019-01-20T19:39:57.147Z,-3.16
2019-01-20T19:44:02.150Z,-3.57
2019-01-20T19:48:12.993Z,-3.82
2019-01-20T19:52:14.043Z,-3.86
2019-01-20T19:56:19.152Z,-3.88
2019-01-20T20:00:24.979Z,-3.58
2019-01-20T20:04:30.040Z,-3.69
2019-01-20T20:08:35.422Z,-3.58
2019-01-20T20:12:41.337Z,-3.84
2019-01-20T20:16:47.490Z,-4.11
2019-01-20T20:20:52.587Z,-3.98
2019-01-20T20:24:57.606Z,-4.17
2019-01-20T20:29:02.918Z,-4.21
2019-01-20T20:33:08.195Z,-4.28
2019-01-20T20:37:13.344Z,-3.86
2019-01-20T20:41:18.420Z,-3.98
2019-01-20T20:45:24.119Z,-4.56
2019-01-20T20:49:29.461Z,-4.56
2019-01-20T20:53:34.587Z,-4.13
2019-01-20T20:57:39.681Z,-4.39
2019-01-20T21:01:44.819Z,-4.39
2019-01-20T21:05:50.010Z,-4.61
2019-01-20T21:09:56.476Z,-4.60
2019-01-20T21:14:01.675Z,-4.57
2019-01-20T21:18:06.892Z,-4.58
2019-01-20T21:22:12.042Z,-4.55
2019-01-20T21:26:17.085Z,-4.35
2019-01-20T21:30:24.029Z,-4.42
2019-01-20T21:34:29.200Z,-4.73
2019-01-20T21:38:34.367Z,-5.06
2019-01-20T21:42:39.511Z,-5.02
2019-01-20T21:46:45.373Z,-5.13
2019-01-20T21:50:50.859Z,-4.75
2019-01-20T21:54:56.008Z,-4.64
2019-01-20T21:59:02.429Z,-4.84
2019-01-20T22:03:07.490Z,-4.59
2019-01-20T22:07:12.607Z,-4.58
2019-01-20T22:11:17.787Z,-4.48
2019-01-20T22:15:22.948Z,-4.94
2019-01-20T22:19:28.217Z,-4.97
2019-01-20T22:23:33.270Z,-4.56
2019-01-20T22:27:38.378Z,-4.41
2019-01-20T22:31:43.543Z,-4.74
2019-01-20T22:35:48.695Z,-4.65
2019-01-20T22:39:53.842Z,-4.72
2019-01-20T22:43:59.034Z,-4.93
2019-01-20T22:48:04.098Z,-5.10
2019-01-20T22:52:10.213Z,-4.90
2019-01-20T22:56:15.346Z,-4.85
2019-01-20T23:01:19.330Z,-4.95
2019-01-20T23:05:24.409Z,-5.23
2019-01-20T23:09:29.583Z,-5.72
2019-01-20T23:13:34.705Z,-5.48
2019-01-20T23:17:39.780Z,-5.14
2019-01-20T23:21:44.950Z,-5.06
2019-01-20T23:25:49.980Z,-5.07
2019-01-20T23:29:55.500Z,-4.98
2019-01-20T23:34:00.559Z,-5.23
2019-01-20T23:38:05.707Z,-5.37
2019-01-20T23:42:10.894Z,-5.12
2019-01-20T23:46:15.917Z,-4.81
2019-01-20T23:50:21.055Z,-5.17
2019-01-20T23:54:26.186Z,-5.32
2019-01-20T23:58:31.315Z,-5.26
